Time;durP1;ratioP1;P1;durP2;ratioP2;P2;SDS_P1;SDS_P2;PMS_P1;PMS_P2;Temp;Humidity;BMP_temperature;BMP_pressure;BME280_temperature;BME280_humidity;BME280_pressure;Samples;Min_cycle;Max_cycle;Signal;HPM_P1;HPM_P2
2021/10/04 00:00:23;;;;;;;1.90;1.80;;;;;;;21.60;80.84;97358.38;5026971;28;20205;-69
2021/10/04 00:02:50;;;;;;;1.97;1.87;;;;;;;21.18;80.57;97283.09;5051931;28;20650;-69
2021/10/04 00:05:16;;;;;;;2.47;2.27;;;;;;;21.17;80.96;97281.38;5055678;28;20647;-69
2021/10/04 00:07:43;;;;;;;2.50;2.30;;;;;;;21.59;80.89;97366.88;5055751;28;20201;-70
2021/10/04 00:10:14;;;;;;;2.40;2.20;;;;;;;21.10;80.88;97285.44;5041572;28;20260;-69
2021/10/04 00:12:41;;;;;;;2.10;1.90;;;;;;;21.59;81.02;97372.84;5023476;28;20225;-69
2021/10/04 00:15:09;;;;;;;2.40;2.20;;;;;;;21.38;80.79;97333.06;5012974;28;20249;-69
2021/10/04 00:17:36;;;;;;;2.33;2.13;;;;;;;21.59;80.96;97375.41;5046293;28;20196;-69
2021/10/04 00:20:05;;;;;;;2.07;1.93;;;;;;;21.59;80.78;97367.72;5049378;28;20208;-69
2021/10/04 00:22:32;;;;;;;2.50;2.30;;;;;;;21.57;80.86;97358.28;5054718;28;20224;-69
2021/10/04 00:24:58;;;;;;;2.73;2.10;;;;;;;20.96;80.79;97248.44;5029413;28;20235;-69
2021/10/04 00:27:25;;;;;;;2.50;2.30;;;;;;;21.15;80.99;97294.13;5044771;28;20239;-69
2021/10/04 00:29:51;;;;;;;2.20;2.00;;;;;;;21.52;80.70;97339.41;5053539;28;20236;-69
2021/10/04 00:32:18;;;;;;;1.90;1.80;;;;;;;21.26;80.73;97305.47;5048492;28;20221;-69
2021/10/04 00:34:45;;;;;;;2.03;1.90;;;;;;;21.41;80.98;97331.44;5057559;28;20233;-69
2021/10/04 00:37:11;;;;;;;2.10;2.00;;;;;;;21.47;80.68;97351.22;5041779;28;20235;-69
2021/10/04 00:39:38;;;;;;;2.30;2.20;;;;;;;21.31;80.91;97319.25;5049414;28;20225;-69
2021/10/04 00:42:04;;;;;;;1.80;1.70;;;;;;;21.11;80.76;97283.78;5046843;28;20757;-69
2021/10/04 00:44:31;;;;;;;2.00;1.90;;;;;;;21.31;80.75;97306.47;5024974;28;20248;-69
2021/10/04 00:46:57;;;;;;;2.10;2.00;;;;;;;21.59;80.49;97367.72;5038068;28;20697;-69
2021/10/04 00:49:24;;;;;;;2.30;2.10;;;;;;;21.44;80.78;97353.69;5055666;28;20201;-69
2021/10/04 00:51:51;;;;;;;2.00;1.90;;;;;;;21.60;80.76;97389.06;5053070;28;20232;-69
2021/10/04 00:54:18;;;;;;;2.07;1.97;;;;;;;21.32;81.30;97343.97;5048680;28;20219;-69
2021/10/04 00:56:45;;;;;;;2.33;2.13;;;;;;;21.34;80.84;97342.34;5041785;28;20225;-69
2021/10/04 00:59:12;;;;;;;6.07;2.03;;;;;;;21.44;80.63;97353.69;5028618;28;20223;-69
2021/10/04 01:01:38;;;;;;;2.40;2.20;;;;;;;21.62;80.83;97387.41;5029696;28;20229;-69
2021/10/04 01:04:05;;;;;;;2.33;2.13;;;;;;;21.40;80.57;97350.16;5050584;28;20197;-69
2021/10/04 01:06:32;;;;;;;2.23;2.10;;;;;;;21.53;80.75;97362.44;5022359;28;20192;-69
2021/10/04 01:08:58;;;;;;;2.10;2.00;;;;;;;21.61;80.65;97391.66;5051332;28;20200;-69
2021/10/04 01:11:25;;;;;;;2.40;2.20;;;;;;;20.92;80.64;97294.25;5048682;28;20287;-69
2021/10/04 01:13:52;;;;;;;2.00;1.90;;;;;;;21.28;80.50;97331.94;5014025;28;20197;-68
2021/10/04 01:16:18;;;;;;;2.13;1.93;;;;;;;20.99;80.41;97279.16;5028174;28;20218;-69
2021/10/04 01:18:45;;;;;;;1.90;1.80;;;;;;;21.14;80.68;97307.69;5047774;28;20200;-69
2021/10/04 01:21:12;;;;;;;3.20;1.97;;;;;;;21.37;80.95;97342.41;5049869;28;20200;-69
2021/10/04 01:23:38;;;;;;;2.00;1.90;;;;;;;21.10;80.77;97289.69;5026199;28;20252;-69
2021/10/04 01:26:06;;;;;;;1.90;1.80;;;;;;;21.23;80.41;97307.09;5048005;28;20190;-69
2021/10/04 01:28:32;;;;;;;1.90;1.80;;;;;;;21.47;80.94;97353.78;5032084;28;20250;-69
2021/10/04 01:30:59;;;;;;;2.20;1.90;;;;;;;21.60;80.43;97371.16;5051554;28;20220;-69
2021/10/04 01:33:26;;;;;;;2.00;1.90;;;;;;;21.32;80.80;97320.13;5034653;28;20247;-69
2021/10/04 01:35:52;;;;;;;2.00;1.90;;;;;;;21.59;80.86;97372.84;5053149;28;20248;-68
2021/10/04 01:38:19;;;;;;;1.97;1.87;;;;;;;20.48;80.74;97183.22;5047180;28;20233;-69
2021/10/04 01:40:46;;;;;;;1.70;1.60;;;;;;;21.34;80.65;97337.22;5041687;28;20205;-69
2021/10/04 01:43:13;;;;;;;2.00;1.90;;;;;;;21.12;80.79;97321.25;5023109;28;20220;-69
2021/10/04 01:45:40;;;;;;;1.90;1.80;;;;;;;21.24;81.06;97329.28;5033979;28;20197;-69
2021/10/04 01:48:06;;;;;;;2.00;1.90;;;;;;;21.47;80.74;97374.22;5028020;28;20197;-69
2021/10/04 01:50:34;;;;;;;2.00;1.90;;;;;;;21.53;80.80;97384.63;5048568;28;20315;-69
2021/10/04 01:53:01;;;;;;;2.10;1.90;;;;;;;21.46;80.93;97391.25;5048340;28;20263;-69
2021/10/04 01:55:27;;;;;;;2.10;1.90;;;;;;;21.34;80.79;97374.69;5055240;28;20244;-69
2021/10/04 01:57:54;;;;;;;2.10;2.00;;;;;;;21.33;81.38;97362.75;5060162;28;20204;-69
2021/10/04 02:00:21;;;;;;;2.20;2.00;;;;;;;21.32;80.71;97359.31;5042250;28;20201;-69
2021/10/04 02:02:49;;;;;;;2.10;2.00;;;;;;;21.58;80.68;97408.59;5057841;28;20220;-69
2021/10/04 02:05:16;;;;;;;2.03;1.93;;;;;;;21.58;80.92;97400.94;5052228;28;20239;-69
2021/10/04 02:07:42;;;;;;;2.07;1.97;;;;;;;21.01;80.91;97299.66;5054898;28;20233;-69
2021/10/04 02:10:11;;;;;;;2.00;1.90;;;;;;;21.34;81.19;97350.00;5054084;28;20204;-69
2021/10/04 02:12:38;;;;;;;2.10;1.73;;;;;;;21.59;81.00;97397.56;5043410;28;20590;-69
2021/10/04 02:15:05;;;;;;;2.23;2.03;;;;;;;21.19;80.99;97347.03;5048106;28;20240;-69
2021/10/04 02:17:34;;;;;;;1.90;1.80;;;;;;;21.33;81.01;97348.28;5041098;28;20220;-69
2021/10/04 02:20:02;;;;;;;2.00;1.80;;;;;;;21.47;80.87;97364.84;5055918;28;20224;-69
2021/10/04 02:22:29;;;;;;;2.20;1.93;;;;;;;21.45;80.63;97373.31;5031551;28;20225;-69
2021/10/04 02:24:55;;;;;;;1.90;1.80;;;;;;;21.61;80.89;97395.91;5049741;28;20193;-69
2021/10/04 02:27:22;;;;;;;2.07;1.97;;;;;;;21.61;80.95;97394.22;5025563;28;20194;-69
2021/10/04 02:29:48;;;;;;;1.90;1.80;;;;;;;21.61;80.74;97391.66;5046289;28;20585;-68
2021/10/04 02:32:15;;;;;;;2.17;2.07;;;;;;;21.46;80.75;97360.56;5050737;28;20259;-69
2021/10/04 02:34:42;;;;;;;1.97;1.87;;;;;;;21.22;80.85;97331.78;5031926;28;20209;-69
2021/10/04 02:37:08;;;;;;;2.17;1.97;;;;;;;21.39;80.85;97358.69;5038062;28;20248;-69
2021/10/04 02:39:35;;;;;;;1.80;1.70;;;;;;;21.63;80.85;97400.25;5054679;28;20239;-69
2021/10/04 02:42:02;;;;;;;1.83;1.73;;;;;;;21.52;80.69;97380.31;5058185;28;20934;-69
2021/10/04 02:44:28;;;;;;;2.13;1.93;;;;;;;21.53;80.73;97390.56;5038697;28;20236;-69
2021/10/04 02:46:55;;;;;;;1.80;1.70;;;;;;;21.38;80.57;97351.81;5016564;28;20193;-69
2021/10/04 02:49:21;;;;;;;1.80;1.70;;;;;;;21.61;80.95;97388.22;5019214;28;20198;-69
2021/10/04 02:51:48;;;;;;;1.80;1.70;;;;;;;21.24;80.41;97325.03;5056592;28;20286;-69
2021/10/04 02:54:15;;;;;;;1.90;1.80;;;;;;;21.48;80.50;97358.94;5032765;28;20241;-69
2021/10/04 02:56:41;;;;;;;1.90;1.80;;;;;;;20.95;80.42;97259.50;5055787;28;20519;-69
2021/10/04 02:59:11;;;;;;;1.97;1.87;;;;;;;20.28;80.37;97155.41;5049506;28;20237;-69
2021/10/04 03:01:37;;;;;;;1.90;1.80;;;;;;;21.42;80.64;97351.09;5053411;28;20208;-69
2021/10/04 03:04:04;;;;;;;2.23;1.63;;;;;;;21.51;80.52;97378.59;5032434;28;20205;-69
2021/10/04 03:06:31;;;;;;;2.00;1.90;;;;;;;21.17;80.56;97325.66;5058711;28;20209;-69
2021/10/04 03:08:57;;;;;;;2.00;1.90;;;;;;;21.51;80.54;97369.22;5048160;28;20651;-69
2021/10/04 03:11:24;;;;;;;1.83;1.73;;;;;;;21.57;80.30;97379.63;5026669;28;20201;-69
2021/10/04 03:13:50;;;;;;;1.80;1.70;;;;;;;21.63;80.57;97379.78;5044845;28;20197;-69
2021/10/04 03:16:17;;;;;;;1.93;1.80;;;;;;;20.79;80.30;97230.91;5048992;28;20224;-69
2021/10/04 03:18:43;;;;;;;2.00;1.90;;;;;;;21.32;80.48;97327.78;5049201;28;20302;-69
2021/10/04 03:21:10;;;;;;;2.87;2.10;;;;;;;21.59;80.29;97369.44;5047324;28;20237;-69
2021/10/04 03:23:37;;;;;;;1.77;1.67;;;;;;;21.68;80.02;97378.19;5056625;28;20221;-69
2021/10/04 03:26:03;;;;;;;1.90;1.80;;;;;;;21.55;80.53;97365.91;5044653;28;20251;-69
2021/10/04 03:28:30;;;;;;;2.00;1.90;;;;;;;20.72;80.43;97219.63;5051802;28;20701;-69
2021/10/04 03:30:57;;;;;;;1.90;1.80;;;;;;;21.25;80.62;97320.75;5050191;28;20225;-69
2021/10/04 03:33:23;;;;;;;1.93;1.83;;;;;;;21.69;80.30;97397.84;5031216;28;20214;-69
2021/10/04 03:35:50;;;;;;;1.70;1.60;;;;;;;21.53;80.38;97380.34;5046129;28;20206;-69
2021/10/04 03:38:16;;;;;;;2.10;2.00;;;;;;;21.28;80.24;97337.06;5051223;28;20220;-69
2021/10/04 03:40:43;;;;;;;2.20;2.00;;;;;;;21.64;80.21;97381.50;5050931;28;20229;-69
2021/10/04 03:43:10;;;;;;;1.70;1.60;;;;;;;21.47;80.50;97362.28;5049194;28;20249;-69
2021/10/04 03:45:36;;;;;;;1.90;1.80;;;;;;;21.45;80.38;97358.84;5050785;28;20810;-69
2021/10/04 03:48:03;;;;;;;1.87;1.77;;;;;;;21.41;80.32;97362.13;5051571;28;20202;-69
2021/10/04 03:50:30;;;;;;;1.70;1.60;;;;;;;21.64;80.25;97398.53;5039054;28;20229;-69
2021/10/04 03:52:57;;;;;;;1.93;1.83;;;;;;;21.56;80.10;97392.38;5056645;28;20275;-69
2021/10/04 03:55:23;;;;;;;1.90;1.80;;;;;;;21.59;80.35;97403.53;5054201;28;20197;-72
2021/10/04 03:57:50;;;;;;;1.93;1.83;;;;;;;21.54;80.19;97405.13;5045305;28;20271;-71
2021/10/04 04:00:19;;;;;;;1.80;1.70;;;;;;;21.42;80.37;97369.00;5041766;28;20228;-72
2021/10/04 04:02:46;;;;;;;1.90;1.80;;;;;;;21.52;80.26;97388.84;5021095;28;20297;-72
2021/10/04 04:05:12;;;;;;;1.80;1.70;;;;;;;21.50;80.17;97377.72;5052378;28;20303;-71
2021/10/04 04:07:39;;;;;;;1.90;1.80;;;;;;;21.07;80.23;97303.25;5049612;28;20196;-73
2021/10/04 04:10:07;;;;;;;1.97;1.87;;;;;;;21.71;80.20;97416.66;5050870;28;20693;-71
2021/10/04 04:12:33;;;;;;;1.87;1.77;;;;;;;20.79;80.23;97259.00;5027228;28;20295;-71
2021/10/04 04:15:00;;;;;;;2.57;1.60;;;;;;;20.56;80.30;97252.34;5051351;28;20553;-71
2021/10/04 04:17:26;;;;;;;1.83;1.73;;;;;;;21.45;80.56;97350.28;5055226;28;20290;-71
2021/10/04 04:19:53;;;;;;;1.97;1.87;;;;;;;21.70;80.28;97391.91;5040006;28;20712;-71
2021/10/04 04:22:19;;;;;;;1.70;1.60;;;;;;;21.35;79.88;97354.28;5054823;28;20713;-72
2021/10/04 04:24:46;;;;;;;1.70;1.60;;;;;;;21.70;80.31;97414.91;5056277;28;20212;-72
2021/10/04 04:27:13;;;;;;;1.80;1.70;;;;;;;21.70;80.38;97421.72;5052416;28;20664;-71
2021/10/04 04:29:39;;;;;;;1.70;1.53;;;;;;;20.66;79.96;97244.16;5051625;28;20201;-74
2021/10/04 04:32:07;;;;;;;1.70;1.60;;;;;;;21.30;80.31;97358.44;5041704;28;20249;-72
2021/10/04 04:34:34;;;;;;;1.60;1.50;;;;;;;21.60;80.54;97409.53;5037479;28;20697;-73
2021/10/04 04:37:01;;;;;;;1.63;1.53;;;;;;;21.58;80.37;97408.59;5041352;28;20751;-69
2021/10/04 04:39:28;;;;;;;1.90;1.80;;;;;;;20.94;80.41;97295.19;5036664;28;20255;-75
2021/10/04 04:41:54;;;;;;;2.60;1.63;;;;;;;21.20;80.09;97348.75;5046364;28;20243;-70
2021/10/04 04:44:22;;;;;;;1.70;1.60;;;;;;;21.30;80.12;97384.00;5037414;28;20201;-70
2021/10/04 04:46:49;;;;;;;1.73;1.63;;;;;;;21.64;80.36;97427.53;5048992;28;20244;-70
2021/10/04 04:49:17;;;;;;;1.70;1.60;;;;;;;21.61;80.27;97421.47;5035133;28;20192;-72
2021/10/04 04:51:44;;;;;;;1.57;1.47;;;;;;;21.47;80.09;97403.19;5051278;28;20256;-70
2021/10/04 04:54:10;;;;;;;2.20;1.60;;;;;;;20.19;80.30;97178.13;5049118;28;20200;-72
2021/10/04 04:56:37;;;;;;;1.70;1.60;;;;;;;21.54;80.56;97412.78;5053782;28;20581;-73
2021/10/04 04:59:04;;;;;;;1.77;1.67;;;;;;;21.75;80.25;97452.56;5029232;28;20197;-72
2021/10/04 05:01:30;;;;;;;1.80;1.70;;;;;;;21.63;80.23;97428.38;5052985;28;20228;-71
2021/10/04 05:03:57;;;;;;;1.80;1.70;;;;;;;21.66;80.18;97440.38;5040092;28;20217;-72
2021/10/04 05:06:24;;;;;;;1.90;1.80;;;;;;;21.64;80.13;97434.34;5052270;28;20200;-71
2021/10/04 05:08:51;;;;;;;1.80;1.70;;;;;;;21.57;79.83;97430.78;5052861;28;20224;-69
2021/10/04 05:11:17;;;;;;;1.80;1.70;;;;;;;21.70;80.13;97450.72;5042291;28;20230;-72
2021/10/04 05:13:44;;;;;;;1.70;1.60;;;;;;;21.76;80.25;97457.72;5052271;28;20725;-73
2021/10/04 05:16:13;;;;;;;1.60;1.50;;;;;;;21.67;80.14;97445.53;5048421;28;20193;-71
2021/10/04 05:18:40;;;;;;;1.77;1.67;;;;;;;21.02;79.77;97345.69;5042092;28;20196;-73
2021/10/04 05:21:06;;;;;;;1.70;1.60;;;;;;;21.77;80.12;97462.03;5031193;28;20221;-71
2021/10/04 05:23:33;;;;;;;1.90;1.80;;;;;;;21.69;80.15;97448.13;5043786;28;20225;-75
2021/10/04 05:25:59;;;;;;;1.70;1.60;;;;;;;21.69;79.94;97453.25;5049760;28;20228;-70
2021/10/04 05:28:26;;;;;;;1.67;1.57;;;;;;;21.78;80.10;97465.44;5030033;28;20224;-73
2021/10/04 05:30:53;;;;;;;2.00;1.90;;;;;;;21.68;79.88;97454.94;5040756;28;20300;-70
2021/10/04 05:33:19;;;;;;;2.00;1.83;;;;;;;21.62;80.18;97444.53;5041632;28;20240;-70
2021/10/04 05:35:46;;;;;;;2.03;1.87;;;;;;;20.82;79.99;97313.59;5044222;28;20663;-74
2021/10/04 05:38:13;;;;;;;1.70;1.60;;;;;;;21.77;80.19;97473.97;5056156;28;20248;-73
2021/10/04 05:40:40;;;;;;;1.67;1.57;;;;;;;21.53;80.27;97428.94;5052378;28;20204;-74
2021/10/04 05:43:06;;;;;;;1.67;1.50;;;;;;;21.39;80.00;97412.38;5056568;28;20228;-74
2021/10/04 05:45:33;;;;;;;1.93;1.70;;;;;;;21.46;80.35;97424.47;5046216;28;20224;-75
2021/10/04 05:47:59;;;;;;;1.57;1.47;;;;;;;21.69;79.85;97464.34;5039978;28;20221;-74
2021/10/04 05:50:26;;;;;;;1.70;1.60;;;;;;;21.68;80.17;97464.31;5050021;28;20247;-75
2021/10/04 05:52:53;;;;;;;2.53;1.50;;;;;;;21.79;79.70;97475.72;5031441;28;20239;-73
2021/10/04 05:55:19;;;;;;;1.67;1.57;;;;;;;21.63;79.58;97450.53;5052518;28;20233;-73
2021/10/04 05:57:46;;;;;;;4.57;1.80;;;;;;;21.73;79.15;97471.28;5052070;28;20628;-73
2021/10/04 06:00:13;;;;;;;4.83;1.87;;;;;;;21.77;78.74;97490.19;5043421;28;20197;-73
2021/10/04 06:02:40;;;;;;;3.70;1.77;;;;;;;21.64;78.61;97465.03;5050140;28;20259;-74
2021/10/04 06:05:07;;;;;;;2.33;1.77;;;;;;;21.40;78.58;97429.44;5013162;28;20578;-73
2021/10/04 06:07:34;;;;;;;4.83;1.90;;;;;;;21.60;78.87;97459.00;5034504;28;20208;-73
2021/10/04 06:10:00;;;;;;;5.80;2.03;;;;;;;21.60;79.29;97469.22;5041047;28;20201;-73
2021/10/04 06:12:27;;;;;;;2.10;1.90;;;;;;;21.68;79.37;97485.63;5038937;28;20232;-77
2021/10/04 06:14:57;;;;;;;4.17;1.70;;;;;;;21.42;79.34;97438.00;5053271;28;20573;-73
2021/10/04 06:17:24;;;;;;;3.17;2.00;;;;;;;21.74;79.00;97492.66;5042882;28;20298;-74
2021/10/04 06:19:51;;;;;;;1.87;1.70;;;;;;;21.65;79.51;97482.13;5050329;28;20204;-71
2021/10/04 06:22:17;;;;;;;5.37;1.70;;;;;;;21.70;79.70;97501.88;5010066;28;20233;-72
2021/10/04 06:24:44;;;;;;;2.13;1.80;;;;;;;21.45;79.69;97457.69;5042168;28;20646;-73
2021/10/04 06:27:10;;;;;;;3.63;1.70;;;;;;;21.69;79.54;97512.97;5048721;28;20229;-74
2021/10/04 06:29:37;;;;;;;2.20;1.80;;;;;;;21.34;79.57;97447.16;5052143;28;20265;-75
2021/10/04 06:32:05;;;;;;;2.43;1.60;;;;;;;21.74;79.66;97533.59;5046979;28;20220;-75
2021/10/04 06:34:32;;;;;;;8.87;1.93;;;;;;;21.64;79.65;97529.84;5023044;28;20193;-73
2021/10/04 06:36:58;;;;;;;2.23;2.00;;;;;;;21.67;80.13;97531.63;5031775;28;20243;-74
2021/10/04 06:39:25;;;;;;;2.37;1.63;;;;;;;21.73;79.92;97536.91;5044658;28;20197;-74
2021/10/04 06:41:52;;;;;;;2.37;1.67;;;;;;;21.56;79.83;97512.56;5052240;28;20255;-72
2021/10/04 06:44:18;;;;;;;2.93;1.60;;;;;;;21.59;79.75;97528.84;5041708;28;20243;-71
2021/10/04 06:46:59;;;;;;;1.67;1.57;;;;;;;21.69;79.68;97540.22;5040918;28;20694;-73
2021/10/04 06:49:30;;;;;;;2.23;1.60;;;;;;;21.50;79.92;97497.03;5048316;28;20292;-73
2021/10/04 06:51:56;;;;;;;1.73;1.63;;;;;;;21.72;79.90;97542.84;5034649;28;20257;-72
2021/10/04 06:54:23;;;;;;;3.37;1.70;;;;;;;21.73;79.97;97536.06;5053923;28;20220;-73
2021/10/04 06:56:49;;;;;;;1.57;1.47;;;;;;;21.68;80.17;97529.09;5046964;28;20228;-76
2021/10/04 06:59:16;;;;;;;1.60;1.50;;;;;;;21.70;79.80;97537.69;5037581;28;20204;-74
2021/10/04 07:01:43;;;;;;;1.60;1.50;;;;;;;21.50;80.09;97497.88;5052793;28;20228;-74
2021/10/04 07:04:09;;;;;;;2.47;1.60;;;;;;;21.73;79.93;97543.75;5037782;28;20193;-73
2021/10/04 07:06:36;;;;;;;1.60;1.50;;;;;;;21.73;80.22;97551.41;5051784;28;20229;-73
2021/10/04 07:09:05;;;;;;;1.90;1.50;;;;;;;21.73;79.97;97557.38;5048246;28;20209;-72
2021/10/04 07:11:32;;;;;;;3.33;1.80;;;;;;;21.44;80.03;97507.09;5055742;28;20239;-72
2021/10/04 07:13:59;;;;;;;1.80;1.70;;;;;;;21.65;80.11;97546.06;5032613;28;20239;-72
2021/10/04 07:16:25;;;;;;;1.83;1.60;;;;;;;21.59;79.46;97536.50;5033089;28;20683;-72
2021/10/04 07:18:52;;;;;;;1.70;1.60;;;;;;;21.71;79.75;97557.31;5053196;28;20685;-71
2021/10/04 07:21:19;;;;;;;2.17;1.80;;;;;;;21.58;80.26;97529.66;5045798;28;20198;-73
2021/10/04 07:23:46;;;;;;;3.90;1.73;;;;;;;21.63;80.03;97538.34;5027588;28;20714;-75
2021/10/04 07:26:13;;;;;;;1.80;1.70;;;;;;;21.39;79.90;97495.84;5051968;28;20240;-72
2021/10/04 07:28:40;;;;;;;1.50;1.40;;;;;;;19.91;79.75;97246.13;5054560;28;20229;-72
2021/10/04 07:31:07;;;;;;;1.50;1.40;;;;;;;21.71;80.02;97559.03;5039928;28;20243;-71
2021/10/04 07:33:34;;;;;;;1.80;1.70;;;;;;;21.37;79.81;97502.59;5038084;28;20240;-72
2021/10/04 07:36:02;;;;;;;3.13;1.63;;;;;;;21.62;79.48;97545.97;5039948;28;20227;-74
2021/10/04 07:38:28;;;;;;;1.90;1.80;;;;;;;21.62;79.68;97554.50;5035894;28;20286;-74
2021/10/04 07:40:55;;;;;;;1.67;1.57;;;;;;;21.70;79.80;97570.94;5051990;28;20232;-74
2021/10/04 07:43:22;;;;;;;2.07;1.70;;;;;;;21.69;79.27;97566.66;5029005;28;20245;-72
2021/10/04 07:45:48;;;;;;;1.87;1.77;;;;;;;21.60;77.58;97545.94;5049746;28;20197;-73
2021/10/04 07:48:15;;;;;;;3.20;1.70;;;;;;;21.61;76.41;97546.78;5030551;28;20602;-74
2021/10/04 07:50:44;;;;;;;3.67;1.60;;;;;;;21.56;76.29;97558.59;5049745;28;20203;-74
2021/10/04 07:53:12;;;;;;;1.63;1.53;;;;;;;21.51;77.25;97558.47;5033305;28;20221;-72
2021/10/04 07:55:39;;;;;;;2.77;1.70;;;;;;;21.67;77.18;97593.88;5031752;28;20232;-72
2021/10/04 07:58:06;;;;;;;1.60;1.50;;;;;;;21.63;77.80;97586.06;5054316;28;20252;-73
2021/10/04 08:00:32;;;;;;;1.70;1.60;;;;;;;21.68;77.63;97605.00;5046686;28;20227;-72
2021/10/04 08:02:59;;;;;;;3.10;1.63;;;;;;;21.34;78.10;97554.50;5049423;28;20217;-72
2021/10/04 08:05:26;;;;;;;2.63;1.60;;;;;;;21.36;77.97;97554.56;5039495;28;20800;-74
2021/10/04 08:07:52;;;;;;;2.07;1.50;;;;;;;21.67;78.36;97613.47;5033554;28;20194;-73
2021/10/04 08:10:19;;;;;;;2.20;1.47;;;;;;;21.63;78.33;97606.53;5038515;28;20694;-71
2021/10/04 08:12:46;;;;;;;1.80;1.43;;;;;;;21.59;78.65;97603.00;5052650;28;20283;-72
2021/10/04 08:15:12;;;;;;;1.60;1.50;;;;;;;21.62;78.54;97607.38;5017213;28;20197;-73
2021/10/04 08:17:39;;;;;;;2.93;1.73;;;;;;;21.68;78.58;97616.06;5048258;28;20228;-74
2021/10/04 08:20:08;;;;;;;1.67;1.57;;;;;;;21.50;78.76;97589.09;5049005;28;20205;-73
2021/10/04 08:22:36;;;;;;;1.70;1.60;;;;;;;21.64;78.69;97621.03;5052847;28;20759;-72
2021/10/04 08:25:04;;;;;;;2.50;1.43;;;;;;;21.59;78.72;97609.84;5046396;28;20240;-72
2021/10/04 08:27:31;;;;;;;2.27;1.40;;;;;;;21.67;78.54;97627.13;5048960;28;20278;-72
2021/10/04 08:29:57;;;;;;;1.83;1.60;;;;;;;21.54;78.92;97616.47;5031818;28;20205;-72
2021/10/04 08:32:24;;;;;;;1.47;1.37;;;;;;;21.66;78.92;97645.88;5051108;28;20229;-72
2021/10/04 08:34:50;;;;;;;1.93;1.73;;;;;;;21.60;78.94;97638.00;5047701;28;20197;-73
2021/10/04 08:37:21;;;;;;;1.93;1.60;;;;;;;21.27;78.86;97578.16;5037719;28;20213;-72
2021/10/04 08:39:48;;;;;;;1.50;1.40;;;;;;;21.01;78.93;97544.94;5026364;28;20596;-74
2021/10/04 08:42:15;;;;;;;2.80;1.80;;;;;;;21.56;79.18;97630.19;5048833;28;20251;-72
2021/10/04 08:44:41;;;;;;;1.40;1.30;;;;;;;21.55;79.02;97629.31;5039121;28;20201;-72
2021/10/04 08:47:08;;;;;;;2.70;1.53;;;;;;;21.20;78.87;97568.56;5021049;28;20192;-72
2021/10/04 08:49:34;;;;;;;1.50;1.40;;;;;;;21.55;79.09;97631.88;5049472;28;20193;-72
2021/10/04 08:52:01;;;;;;;1.50;1.40;;;;;;;21.67;79.22;97645.03;5046769;28;20221;-72
2021/10/04 08:54:29;;;;;;;1.60;1.50;;;;;;;21.56;78.66;97636.16;5044526;28;20299;-72
2021/10/04 08:56:56;;;;;;;1.87;1.50;;;;;;;21.32;78.92;97585.97;5035935;28;20418;-73
2021/10/04 08:59:23;;;;;;;2.13;1.50;;;;;;;21.48;79.11;97619.72;5022788;28;20641;-72
2021/10/04 09:01:49;;;;;;;3.57;1.40;;;;;;;21.51;79.00;97626.63;5048344;28;20260;-74
2021/10/04 09:04:20;;;;;;;1.40;1.30;;;;;;;21.34;79.14;97603.09;5036490;28;20232;-74
2021/10/04 09:06:47;;;;;;;2.77;1.53;;;;;;;21.63;79.22;97655.13;5033485;28;20201;-72
2021/10/04 09:09:15;;;;;;;1.60;1.50;;;;;;;21.42;79.16;97614.44;5051161;28;20193;-72
2021/10/04 09:11:48;;;;;;;2.50;1.70;;;;;;;21.57;78.97;97637.03;5036076;28;20237;-72
2021/10/04 09:14:29;;;;;;;2.73;1.60;;;;;;;21.57;79.16;97637.91;5026072;28;20228;-73
2021/10/04 09:16:59;;;;;;;1.70;1.60;;;;;;;21.34;79.26;97607.31;5044136;28;20199;-72
2021/10/04 09:19:26;;;;;;;1.70;1.60;;;;;;;21.67;79.23;97670.63;5024557;28;20313;-72
2021/10/04 09:22:04;;;;;;;1.93;1.50;;;;;;;21.67;79.19;97668.06;5049651;28;20278;-74
2021/10/04 09:24:32;;;;;;;4.40;1.63;;;;;;;21.28;79.24;97597.78;5045209;28;20300;-72
2021/10/04 09:26:59;;;;;;;4.00;1.43;;;;;;;21.37;79.16;97615.09;5036330;28;20217;-77
2021/10/04 09:29:25;;;;;;;2.07;1.50;;;;;;;20.79;79.27;97529.72;5034356;28;20233;-72
2021/10/04 09:31:52;;;;;;;2.50;1.20;;;;;;;21.53;79.41;97645.44;5048437;28;20286;-74
2021/10/04 09:34:23;;;;;;;1.53;1.43;;;;;;;21.33;79.32;97618.38;5036224;28;20795;-73
2021/10/04 09:36:53;;;;;;;1.60;1.50;;;;;;;21.66;79.34;97681.69;5032674;28;20651;-72
2021/10/04 09:39:31;;;;;;;1.73;1.60;;;;;;;21.54;79.45;97654.84;5050961;28;20264;-72
2021/10/04 09:42:17;;;;;;;1.50;1.40;;;;;;;21.31;79.33;97630.22;5034626;28;20725;-72
2021/10/04 09:44:48;;;;;;;1.60;1.50;;;;;;;21.66;79.31;97701.25;5032953;28;20250;-73
2021/10/04 09:47:33;;;;;;;2.10;1.53;;;;;;;21.67;79.45;97695.31;5044960;28;20224;-73
2021/10/04 09:50:11;;;;;;;2.07;1.70;;;;;;;21.58;79.42;97685.69;5042780;28;20224;-72
2021/10/04 09:53:09;;;;;;;1.67;1.57;;;;;;;21.61;79.21;97683.22;5116925;23;20213;-63
2021/10/04 09:55:40;;;;;;;1.60;1.50;;;;;;;21.61;79.17;97695.13;4986562;28;20215;-65
2021/10/04 09:58:08;;;;;;;2.50;1.70;;;;;;;21.65;79.56;97710.63;4989229;28;20755;-64
2021/10/04 10:00:44;;;;;;;2.10;1.60;;;;;;;21.66;79.43;97717.50;4987994;28;20438;-65
2021/10/04 10:03:11;;;;;;;3.13;1.53;;;;;;;21.65;79.58;97718.28;4959126;28;20222;-66
2021/10/04 10:05:41;;;;;;;1.60;1.50;;;;;;;21.57;79.81;97703.53;4968238;28;20267;-65
2021/10/04 10:08:08;;;;;;;1.57;1.47;;;;;;;21.64;79.84;97731.03;4965788;28;20227;-64
2021/10/04 10:10:38;;;;;;;1.73;1.50;;;;;;;21.64;79.75;97733.59;4966033;28;20925;-65
2021/10/04 10:13:06;;;;;;;2.07;1.47;;;;;;;21.61;79.82;97726.69;4964654;28;20219;-66
2021/10/04 10:15:33;;;;;;;1.50;1.40;;;;;;;21.45;79.80;97696.34;4983308;28;20207;-65
2021/10/04 10:18:20;;;;;;;1.50;1.40;;;;;;;21.47;79.91;97692.13;4961108;28;20251;-64
2021/10/04 10:20:59;;;;;;;2.33;1.60;;;;;;;21.63;79.70;97712.28;4949774;28;20208;-64
2021/10/04 10:23:59;;;;;;;3.43;1.40;;;;;;;21.63;79.80;97717.41;4980912;28;20266;-64
2021/10/04 10:26:39;;;;;;;1.70;1.30;;;;;;;21.63;79.81;97713.94;4973921;28;20207;-65
2021/10/04 10:29:08;;;;;;;3.13;1.57;;;;;;;21.63;79.88;97707.16;4970671;28;20665;-64
2021/10/04 10:31:50;;;;;;;1.40;1.30;;;;;;;21.62;79.89;97707.97;4971411;28;20243;-66
2021/10/04 10:34:32;;;;;;;2.33;1.40;;;;;;;21.62;79.81;97702.84;4968999;28;20227;-64
2021/10/04 10:37:06;;;;;;;2.00;1.50;;;;;;;21.63;79.78;97708.84;4964418;28;20208;-64
2021/10/04 10:39:56;;;;;;;2.03;1.40;;;;;;;21.61;79.57;97710.47;4966976;28;20274;-65
2021/10/04 10:42:29;;;;;;;1.53;1.30;;;;;;;21.63;79.86;97726.75;4958337;28;20238;-64
2021/10/04 10:45:09;;;;;;;1.90;1.50;;;;;;;21.64;79.75;97731.03;4962368;28;20251;-62
2021/10/04 10:47:35;;;;;;;1.47;1.30;;;;;;;21.64;79.69;97725.91;4966796;28;20215;-62
2021/10/04 10:50:08;;;;;;;1.40;1.30;;;;;;;21.63;79.89;97732.75;4972815;28;20258;-63
2021/10/04 10:52:42;;;;;;;1.50;1.30;;;;;;;21.57;79.83;97726.56;4982411;28;20260;-61
2021/10/04 10:55:18;;;;;;;1.40;1.30;;;;;;;21.64;79.80;97734.47;4953031;28;20707;-65
2021/10/04 10:57:57;;;;;;;1.43;1.33;;;;;;;21.63;79.75;97726.75;4965230;28;20207;-64
2021/10/04 11:00:31;;;;;;;1.57;1.40;;;;;;;21.64;79.86;97738.69;4971778;28;20231;-65
2021/10/04 11:03:03;;;;;;;1.43;1.33;;;;;;;21.63;79.76;97727.63;4954226;28;20216;-63
2021/10/04 11:05:38;;;;;;;1.60;1.50;;;;;;;21.63;79.77;97730.19;4958634;28;20204;-65
2021/10/04 11:08:09;;;;;;;1.50;1.40;;;;;;;21.63;79.78;97735.28;4960530;28;20191;-65
2021/10/04 11:10:56;;;;;;;1.40;1.30;;;;;;;21.58;79.90;97724.03;4963621;28;20211;-65
2021/10/04 11:13:26;;;;;;;1.50;1.40;;;;;;;21.63;79.70;97721.63;4980960;28;20219;-66
2021/10/04 11:15:54;;;;;;;1.57;1.40;;;;;;;21.63;79.68;97732.75;4968705;28;20378;-65
2021/10/04 11:18:21;;;;;;;1.33;1.23;;;;;;;21.61;79.71;97729.25;4963271;28;20223;-65
2021/10/04 11:20:48;;;;;;;1.20;1.10;;;;;;;21.59;79.77;97730.88;4974809;28;20238;-64
2021/10/04 11:23:17;;;;;;;2.13;1.40;;;;;;;21.61;79.88;97742.03;4981885;28;20224;-62
2021/10/04 11:25:50;;;;;;;1.67;1.40;;;;;;;21.61;79.65;97738.59;4966204;28;20199;-63
2021/10/04 11:28:21;;;;;;;1.70;1.40;;;;;;;21.61;80.04;97736.03;4983534;28;20287;-64
2021/10/04 11:30:58;;;;;;;1.33;1.23;;;;;;;21.61;79.92;97730.94;4968330;28;20258;-63
2021/10/04 11:33:26;;;;;;;1.40;1.17;;;;;;;21.57;79.93;97726.56;4963090;28;20255;-64
2021/10/04 11:36:11;;;;;;;1.40;1.30;;;;;;;21.60;79.93;97732.63;4946023;28;20752;-63
2021/10/04 11:38:51;;;;;;;1.50;1.40;;;;;;;21.46;80.13;97704.88;4969096;28;20663;-64